METAR Data
IDs: Format: Raw Decoded Include TAF

Data at: 1051 UTC 18 Jan 2022

KEEO 180953Z AUTO 00000KT 10SM CLR M09/M13 A3000 RMK AO2 SLP180 T10891133 $
KEEO 180853Z AUTO 04005KT 10SM CLR M09/M13 A3000 RMK AO2 SLP179 T10891133 56007 $
KEEO 180753Z AUTO 07005KT 10SM CLR M08/M13 A3000 RMK AO2 SLP183 T10831133 $
KEEO 180653Z AUTO 00000KT 10SM CLR M07/M13 A3001 RMK AO2 SLP192 T10721128 400441150 $
KEEO 180553Z AUTO 00000KT 10SM CLR M06/M14 A3002 RMK AO2 SLP197 T10561139 10000 21078 56004 $
KEEO 180453Z AUTO 03003KT 10SM CLR M04/M13 A3002 RMK AO2 SLP198 T10441133 $
KEEO 180353Z AUTO 06003KT 10SM CLR M08/M13 A3002 RMK AO2 SLP220 T10781128 $
KEEO 180253Z AUTO 03003KT 10SM CLR M06/M12 A3004 RMK AO2 SLP224 T10561117 51004 $
KEEO 180153Z AUTO 00000KT 10SM CLR M06/M12 A3004 RMK AO2 SLP234 T10611117 $
KEEO 180053Z AUTO 08003KT 10SM CLR M05/M11 A3003 RMK AO2 SLP222 T10501106 $
KEEO 172353Z AUTO 00000KT 10SM CLR 00/M09 A3002 RMK AO2 SLP210 T00001094 10044 21033 56006 $
KEEO 172253Z AUTO 00000KT 10SM CLR 03/M11 A3002 RMK AO2 SLP198 T00331106 $
KEEO 172153Z AUTO 00000KT 10SM CLR 03/M11 A3004 RMK AO2 SLP199 T00331106 $
KEEO 172053Z AUTO 00000KT 10SM CLR 03/M11 A3004 RMK AO2 SLP198 T00281106 58031 $
KEEO 171953Z AUTO 15004KT 10SM CLR 01/M11 A3011 RMK AO2 SLP228 T00111106 $
KEEO 171853Z AUTO 00000KT 10SM CLR M01/M12 A3012 RMK AO2 SLP237 T10061117 $
KEEO 171753Z AUTO 00000KT 10SM CLR M03/M12 A3015 RMK AO2 SLP254 T10331117 11033 21144 58002 $
KEEO 171653Z AUTO 00000KT 10SM CLR M05/M13 A3016 RMK AO2 SLP260 T10501133 $
KEEO 171553Z AUTO 00000KT 10SM CLR M09/M16 A3016 RMK AO2 SLP269 T10891161 $
KEEO 171453Z AUTO 09003KT 10SM CLR M12/M17 A3016 RMK AO2 SLP274 T11171172 55001 $
KEEO 171353Z AUTO 06005KT 10SM CLR M14/M18 A3015 RMK AO2 SLP275 T11391178 $
KEEO 171253Z AUTO 00000KT 10SM CLR M12/M17 A3015 RMK AO2 SLP266 T11221172 $
KEEO 171153Z AUTO 06004KT 10SM CLR M13/M18 A3016 RMK AO2 SLP266 T11331178 11067 21150 58007 $
KEEO 171053Z AUTO 12003KT 10SM CLR M12/M17 A3017 RMK AO2 SLP257 T11221167 $
KEEO 170953Z AUTO 07004KT 10SM CLR M11/M17 A3018 RMK AO2 SLP252 T11111167 $
KEEO 170853Z AUTO 00000KT 10SM CLR M10/M16 A3019 RMK AO2 SLP253 T11001156 58003 $
KEEO 170753Z AUTO 05003KT 10SM CLR M10/M16 A3019 RMK AO2 SLP259 T11001156 $
KEEO 170653Z AUTO 06006KT 10SM CLR M09/M15 A3020 RMK AO2 SLP257 T10941150 400331111 $
KEEO 170553Z AUTO 05005KT 10SM CLR M09/M14 A3020 RMK AO2 SLP263 T10891144 11028 21100 58003 $
KEEO 170453Z AUTO 00000KT 10SM CLR M08/M14 A3020 RMK AO2 SLP268 T10831139 $
KEEO 170353Z AUTO 03004KT 10SM CLR M08/M13 A3021 RMK AO2 SLP278 T10831133 $
KEEO 170253Z AUTO 00000KT 10SM CLR M07/M12 A3021 RMK AO2 SLP282 T10721122 51010 $
KEEO 170153Z AUTO 07004KT 10SM CLR M07/M11 A3020 RMK AO2 SLP271 T10671111 $
KEEO 170053Z AUTO 15003KT 10SM CLR M05/M11 A3019 RMK AO2 SLP267 T10501106 $
KEEO 162353Z AUTO 06003KT 10SM CLR M02/M09 A3017 RMK AO2 SLP251 T10221089 10033 21022 56005 $
KEEO 162253Z AUTO 00000KT 10SM CLR 01/M08 A3018 RMK AO2 SLP245 T00111083 $